createdAt,value
2018-03-04T00:00:56.592Z,4.40
2018-03-04T00:03:24.111Z,4.40
2018-03-04T00:05:51.639Z,4.40
2018-03-04T00:08:19.181Z,4.40
2018-03-04T00:10:46.710Z,4.40
2018-03-04T00:13:15.031Z,4.30
2018-03-04T00:15:43.194Z,4.30
2018-03-04T00:18:11.294Z,4.10
2018-03-04T00:20:38.878Z,4.00
2018-03-04T00:23:07.216Z,3.90
2018-03-04T00:25:34.730Z,3.90
2018-03-04T00:28:03.043Z,3.90
2018-03-04T00:30:30.590Z,3.90
2018-03-04T00:32:58.111Z,4.00
2018-03-04T00:35:27.442Z,4.10
2018-03-04T00:37:55.926Z,4.10
2018-03-04T00:40:23.539Z,4.00
2018-03-04T00:42:51.029Z,4.10
2018-03-04T00:45:18.606Z,4.20
2018-03-04T00:47:46.131Z,4.40
2018-03-04T00:50:14.473Z,4.90
2018-03-04T00:52:41.998Z,4.90
2018-03-04T00:55:09.536Z,5.20
2018-03-04T00:57:37.097Z,5.40
2018-03-04T01:00:04.626Z,5.60
2018-03-04T01:02:32.952Z,6.10
2018-03-04T01:05:00.542Z,6.00
2018-03-04T01:07:28.096Z,6.20
2018-03-04T01:09:55.664Z,6.30
2018-03-04T01:12:23.187Z,6.20
2018-03-04T01:14:50.715Z,6.00
2018-03-04T01:17:19.022Z,5.50
2018-03-04T01:19:46.542Z,5.50
2018-03-04T01:22:14.097Z,5.30
2018-03-04T01:24:41.617Z,5.30
2018-03-04T01:27:09.139Z,5.00
2018-03-04T01:29:36.687Z,4.50
2018-03-04T01:32:04.216Z,4.20
2018-03-04T01:34:31.778Z,4.10
2018-03-04T01:36:59.304Z,4.40
2018-03-04T01:39:27.773Z,4.30
2018-03-04T01:41:55.316Z,4.30
2018-03-04T01:44:22.842Z,4.30
2018-03-04T01:46:51.161Z,4.20
2018-03-04T01:49:18.694Z,4.20
2018-03-04T01:51:52.102Z,4.30
2018-03-04T01:54:19.624Z,4.40
2018-03-04T01:56:47.158Z,4.50
2018-03-04T01:59:14.710Z,4.60
2018-03-04T02:01:42.238Z,4.80
2018-03-04T02:04:09.782Z,4.90
2018-03-04T02:06:37.302Z,4.70
2018-03-04T02:09:04.853Z,4.80
2018-03-04T02:11:32.390Z,4.80
2018-03-04T02:13:59.919Z,4.90
2018-03-04T02:16:27.475Z,4.80
2018-03-04T02:18:54.994Z,4.80
2018-03-04T02:21:24.469Z,4.70
2018-03-04T02:23:51.998Z,4.60
2018-03-04T02:26:19.551Z,4.30
2018-03-04T02:28:47.859Z,4.30
2018-03-04T02:31:15.412Z,4.30
2018-03-04T02:33:42.960Z,4.20
2018-03-04T02:36:10.487Z,4.20
2018-03-04T02:38:38.011Z,4.10
2018-03-04T02:41:05.563Z,3.90
2018-03-04T02:43:33.106Z,3.90
2018-03-04T02:46:00.666Z,3.90
2018-03-04T02:48:29.166Z,3.80
2018-03-04T02:50:56.683Z,3.70
2018-03-04T02:53:26.937Z,3.50
2018-03-04T02:55:55.427Z,3.40
2018-03-04T02:58:24.917Z,3.50
2018-03-04T03:00:52.436Z,3.40
2018-03-04T03:03:19.950Z,3.40
2018-03-04T03:05:47.494Z,3.40
2018-03-04T03:08:15.017Z,3.30
2018-03-04T03:10:42.566Z,3.20
2018-03-04T03:13:10.079Z,3.20
2018-03-04T03:15:37.618Z,3.20
2018-03-04T03:18:05.168Z,3.20
2018-03-04T03:20:33.703Z,3.10
2018-03-04T03:23:01.261Z,3.10
2018-03-04T03:25:28.789Z,3.00
2018-03-04T03:27:56.306Z,3.00
2018-03-04T03:30:24.611Z,2.90
2018-03-04T03:32:52.139Z,2.90
2018-03-04T03:35:20.446Z,3.00
2018-03-04T03:37:47.967Z,2.90
2018-03-04T03:40:15.514Z,3.00
2018-03-04T03:42:43.057Z,3.00
2018-03-04T03:45:10.591Z,3.00
2018-03-04T03:47:38.155Z,2.90
2018-03-04T03:50:05.708Z,2.90
2018-03-04T03:52:33.222Z,2.80
2018-03-04T03:55:00.775Z,2.70
2018-03-04T03:57:28.302Z,2.60
2018-03-04T03:59:55.848Z,2.70
2018-03-04T04:02:23.368Z,2.80
2018-03-04T04:04:50.881Z,2.70
2018-03-04T04:07:18.422Z,2.70
2018-03-04T04:09:45.942Z,2.60
2018-03-04T04:12:14.265Z,2.30
2018-03-04T04:14:41.786Z,2.20
2018-03-04T04:17:09.303Z,2.30
2018-03-04T04:19:36.845Z,2.40
2018-03-04T04:22:04.357Z,2.40
2018-03-04T04:24:31.947Z,2.40
2018-03-04T04:26:59.477Z,2.40
2018-03-04T04:29:27.011Z,2.40
2018-03-04T04:31:54.545Z,2.40
2018-03-04T04:34:22.049Z,2.30
2018-03-04T04:36:49.599Z,2.30
2018-03-04T04:39:17.142Z,2.20
2018-03-04T04:41:44.671Z,2.20
2018-03-04T04:44:12.234Z,2.10
2018-03-04T04:46:39.800Z,2.10
2018-03-04T04:49:07.318Z,2.10
2018-03-04T04:51:34.838Z,2.10
2018-03-04T04:54:02.353Z,2.10
2018-03-04T04:56:29.902Z,2.00
2018-03-04T04:58:57.465Z,2.00
2018-03-04T05:01:25.022Z,1.90
2018-03-04T05:03:52.559Z,1.90
2018-03-04T05:06:21.027Z,1.90
2018-03-04T05:08:49.345Z,1.90
2018-03-04T05:11:16.891Z,1.90
2018-03-04T05:13:44.405Z,1.90
2018-03-04T05:16:11.955Z,1.90
2018-03-04T05:18:40.415Z,1.90
2018-03-04T05:21:07.939Z,1.90
2018-03-04T05:23:35.483Z,1.90
2018-03-04T05:26:03.776Z,1.90
2018-03-04T05:28:31.327Z,1.90
2018-03-04T05:30:58.877Z,1.90
2018-03-04T05:33:27.154Z,1.80
2018-03-04T05:35:56.044Z,1.80
2018-03-04T05:38:24.349Z,1.90
2018-03-04T05:40:52.009Z,1.90
2018-03-04T05:43:19.540Z,1.90
2018-03-04T05:45:48.010Z,1.90
2018-03-04T05:48:16.319Z,1.80
2018-03-04T05:50:43.838Z,1.80
2018-03-04T05:53:11.382Z,1.80
2018-03-04T05:55:38.925Z,1.80
2018-03-04T05:58:06.494Z,2.00
2018-03-04T06:00:34.050Z,1.90
2018-03-04T06:03:01.578Z,1.80
2018-03-04T06:05:29.136Z,1.80
2018-03-04T06:07:56.784Z,1.70
2018-03-04T06:10:24.316Z,1.90
2018-03-04T06:12:52.621Z,2.20
2018-03-04T06:15:20.175Z,2.20
2018-03-04T06:17:47.734Z,2.20
2018-03-04T06:20:16.213Z,2.20
2018-03-04T06:22:44.702Z,2.20
2018-03-04T06:25:12.270Z,2.10
2018-03-04T06:27:40.750Z,2.10
2018-03-04T06:30:08.298Z,2.10
2018-03-04T06:32:35.814Z,2.00
2018-03-04T06:35:03.334Z,2.00
2018-03-04T06:37:30.879Z,1.90
2018-03-04T06:39:59.331Z,1.90
2018-03-04T06:42:27.639Z,1.90
2018-03-04T06:44:56.122Z,1.90
2018-03-04T06:47:23.662Z,1.80
2018-03-04T06:49:51.231Z,1.90
2018-03-04T06:52:18.785Z,2.00
2018-03-04T06:54:46.361Z,2.10
2018-03-04T06:57:13.878Z,2.20
2018-03-04T06:59:41.395Z,2.40
2018-03-04T07:02:08.946Z,2.50
2018-03-04T07:04:36.469Z,2.60
2018-03-04T07:07:04.013Z,2.60
2018-03-04T07:09:32.287Z,2.90
2018-03-04T07:12:00.564Z,3.10
2018-03-04T07:14:28.239Z,3.10
2018-03-04T07:16:57.134Z,3.40
2018-03-04T07:19:24.793Z,3.60
2018-03-04T07:21:53.073Z,3.90
2018-03-04T07:24:20.617Z,3.80
2018-03-04T07:26:48.931Z,3.90
2018-03-04T07:29:16.442Z,3.90
2018-03-04T07:31:43.986Z,3.80
2018-03-04T07:34:11.499Z,3.80
2018-03-04T07:36:39.024Z,3.60
2018-03-04T07:39:07.336Z,4.00
2018-03-04T07:41:34.865Z,3.90
2018-03-04T07:44:05.138Z,4.20
2018-03-04T07:46:32.666Z,4.10
2018-03-04T07:49:00.217Z,4.30
2018-03-04T07:51:27.742Z,4.60
2018-03-04T07:53:55.284Z,4.80
2018-03-04T07:56:24.757Z,5.00
2018-03-04T07:58:52.287Z,5.30
2018-03-04T08:01:19.839Z,5.40
2018-03-04T08:03:48.135Z,5.90
2018-03-04T08:06:15.658Z,5.80
2018-03-04T08:08:43.978Z,6.20
2018-03-04T08:11:13.526Z,6.10
2018-03-04T08:13:41.205Z,6.40
2018-03-04T08:16:08.851Z,6.50
2018-03-04T08:18:37.172Z,6.90
2018-03-04T08:21:04.716Z,6.80
2018-03-04T08:23:32.225Z,7.00
2018-03-04T08:26:11.590Z,7.20
2018-03-04T08:28:39.120Z,7.40
2018-03-04T08:31:07.598Z,7.70
2018-03-04T08:33:35.182Z,7.80
2018-03-04T08:36:02.732Z,7.90
2018-03-04T08:38:30.336Z,8.00
2018-03-04T08:40:58.630Z,8.50
2018-03-04T08:43:26.212Z,8.40
2018-03-04T08:45:53.732Z,8.50
2018-03-04T08:48:21.308Z,8.60
2018-03-04T08:50:48.850Z,8.80
2018-03-04T08:53:17.135Z,9.20
2018-03-04T08:55:44.687Z,9.20
2018-03-04T08:58:12.201Z,9.30
2018-03-04T09:00:40.707Z,9.50
2018-03-04T09:03:08.999Z,9.70
2018-03-04T09:05:36.530Z,9.70
2018-03-04T09:08:04.093Z,9.80
2018-03-04T09:10:31.617Z,9.90
2018-03-04T09:12:59.388Z,10.00
2018-03-04T09:15:27.932Z,10.10
2018-03-04T09:17:55.467Z,10.20
2018-03-04T09:20:23.792Z,10.60
2018-03-04T09:22:51.318Z,10.50
2018-03-04T09:25:18.869Z,10.60
2018-03-04T09:27:46.399Z,10.80
2018-03-04T09:30:13.931Z,10.90
2018-03-04T09:32:41.506Z,10.90
2018-03-04T09:35:09.038Z,11.20
2018-03-04T09:37:36.617Z,11.30
2018-03-04T09:40:04.146Z,11.20
2018-03-04T09:42:31.683Z,11.30
2018-03-04T09:44:59.245Z,11.20
2018-03-04T09:47:27.530Z,11.20
2018-03-04T09:49:57.047Z,11.10
2018-03-04T09:52:24.593Z,11.10
2018-03-04T09:54:52.109Z,11.10
2018-03-04T09:57:19.671Z,11.20
2018-03-04T09:59:47.189Z,11.30
2018-03-04T10:02:14.744Z,11.30
2018-03-04T10:04:42.258Z,11.10
2018-03-04T10:07:09.774Z,11.30
2018-03-04T10:09:39.247Z,11.40
2018-03-04T10:12:07.734Z,11.50
2018-03-04T10:14:35.283Z,11.50
2018-03-04T10:17:02.818Z,11.70
2018-03-04T10:19:30.346Z,10.80
2018-03-04T10:21:57.924Z,10.50
2018-03-04T10:24:25.451Z,10.50
2018-03-04T10:26:53.010Z,10.20
2018-03-04T10:29:20.543Z,10.40
2018-03-04T10:31:48.078Z,10.10
2018-03-04T10:34:16.402Z,10.60
2018-03-04T10:36:44.906Z,10.60
2018-03-04T10:39:12.444Z,10.70
2018-03-04T10:41:40.003Z,10.60
2018-03-04T10:44:07.535Z,10.50
2018-03-04T10:46:35.067Z,10.30
2018-03-04T10:49:03.380Z,10.60
2018-03-04T10:51:31.847Z,10.60
2018-03-04T10:53:59.399Z,11.10
2018-03-04T10:56:27.722Z,11.40
2018-03-04T10:58:55.260Z,11.40
2018-03-04T11:01:28.689Z,11.80
2018-03-04T11:03:56.212Z,12.10
2018-03-04T11:06:23.794Z,12.30
2018-03-04T11:08:51.337Z,12.70
2018-03-04T11:11:18.865Z,12.90
2018-03-04T11:13:48.161Z,13.30
2018-03-04T11:16:17.421Z,13.40
2018-03-04T11:18:44.963Z,13.40
2018-03-04T11:21:12.504Z,13.50
2018-03-04T11:23:40.045Z,13.60
2018-03-04T11:26:07.598Z,13.60
2018-03-04T11:28:35.966Z,13.50
2018-03-04T11:31:04.420Z,13.50
2018-03-04T11:33:31.936Z,13.60
2018-03-04T11:36:00.830Z,13.70
2018-03-04T11:38:28.403Z,13.80
2018-03-04T11:40:55.950Z,13.80
2018-03-04T11:43:23.493Z,13.70
2018-03-04T11:45:51.022Z,13.70
2018-03-04T11:48:18.538Z,13.90
2018-03-04T11:50:46.090Z,14.10
2018-03-04T11:53:13.632Z,14.20
2018-03-04T11:55:41.184Z,14.00
2018-03-04T11:58:08.702Z,14.10
2018-03-04T12:00:36.226Z,14.30
2018-03-04T12:03:03.774Z,14.60
2018-03-04T12:05:31.315Z,14.60
2018-03-04T12:08:00.846Z,14.80
2018-03-04T12:10:28.386Z,14.90
2018-03-04T12:12:55.923Z,14.90
2018-03-04T12:15:24.458Z,15.10
2018-03-04T12:17:51.983Z,15.20
2018-03-04T12:20:19.566Z,15.00
2018-03-04T12:22:47.102Z,14.70
2018-03-04T12:25:14.623Z,15.00
2018-03-04T12:27:44.159Z,15.20
2018-03-04T12:30:11.687Z,15.10
2018-03-04T12:32:39.239Z,15.10
2018-03-04T12:35:07.867Z,14.90
2018-03-04T12:37:35.406Z,14.40
2018-03-04T12:40:02.954Z,14.40
2018-03-04T12:42:30.470Z,14.60
2018-03-04T12:44:58.025Z,14.00
2018-03-04T12:47:26.514Z,14.00
2018-03-04T12:49:54.052Z,14.10
2018-03-04T12:52:22.651Z,14.20
2018-03-04T12:54:50.182Z,14.60
2018-03-04T12:57:17.737Z,14.90
2018-03-04T12:59:45.288Z,15.20
2018-03-04T13:02:13.576Z,15.60
2018-03-04T13:04:41.122Z,15.60
2018-03-04T13:07:08.659Z,15.90
2018-03-04T13:09:36.202Z,16.30
2018-03-04T13:12:03.734Z,16.80
2018-03-04T13:14:31.275Z,17.10
2018-03-04T13:16:58.829Z,16.50
2018-03-04T13:19:26.354Z,16.10
2018-03-04T13:21:54.903Z,15.60
2018-03-04T13:24:23.438Z,15.10
2018-03-04T13:26:51.935Z,15.00
2018-03-04T13:29:19.492Z,15.10
2018-03-04T13:31:47.038Z,15.20
2018-03-04T13:34:15.357Z,15.70
2018-03-04T13:36:43.105Z,15.70
2018-03-04T13:39:10.634Z,15.50
2018-03-04T13:41:38.962Z,14.80
2018-03-04T13:44:06.559Z,14.90
2018-03-04T13:46:36.858Z,14.30
2018-03-04T13:49:05.385Z,14.30
2018-03-04T13:51:32.919Z,14.40
2018-03-04T13:54:00.475Z,14.90
2018-03-04T13:56:28.010Z,15.10
2018-03-04T13:58:55.554Z,15.50
2018-03-04T14:01:26.234Z,15.80
2018-03-04T14:03:56.646Z,15.80
2018-03-04T14:06:24.168Z,15.70
2018-03-04T14:08:51.696Z,15.80
2018-03-04T14:11:21.220Z,15.80
2018-03-04T14:13:48.758Z,15.90
2018-03-04T14:16:17.073Z,14.90
2018-03-04T14:18:44.594Z,14.80
2018-03-04T14:21:12.213Z,14.50
2018-03-04T14:23:39.778Z,14.20
2018-03-04T14:26:07.302Z,14.10
2018-03-04T14:28:34.843Z,14.10
2018-03-04T14:31:02.370Z,13.70
2018-03-04T14:33:29.902Z,14.00
2018-03-04T14:35:57.441Z,14.10
2018-03-04T14:38:24.968Z,13.90
2018-03-04T14:40:52.558Z,13.90
2018-03-04T14:43:20.074Z,14.10
2018-03-04T14:45:47.590Z,14.20
2018-03-04T14:48:17.089Z,14.20
2018-03-04T14:50:44.613Z,14.40
2018-03-04T14:53:12.142Z,14.50
2018-03-04T14:55:39.691Z,14.40
2018-03-04T14:58:07.974Z,14.70
2018-03-04T15:00:36.258Z,14.60
2018-03-04T15:03:03.810Z,14.60
2018-03-04T15:05:31.343Z,15.00
2018-03-04T15:07:58.916Z,14.90
2018-03-04T15:10:26.514Z,15.00
2018-03-04T15:12:54.055Z,15.00
2018-03-04T15:15:22.363Z,15.00
2018-03-04T15:17:49.894Z,15.00
2018-03-04T15:20:18.211Z,14.20
2018-03-04T15:22:45.731Z,14.20
2018-03-04T15:25:14.241Z,14.20
2018-03-04T15:27:41.800Z,14.40
2018-03-04T15:30:09.343Z,14.60
2018-03-04T15:32:36.882Z,14.70
2018-03-04T15:35:06.083Z,14.20
2018-03-04T15:37:33.684Z,14.10
2018-03-04T15:40:01.958Z,14.20
2018-03-04T15:42:29.473Z,14.20
2018-03-04T15:44:57.018Z,14.00
2018-03-04T15:47:24.547Z,14.00
2018-03-04T15:49:52.112Z,14.00
2018-03-04T15:52:19.680Z,14.00
2018-03-04T15:54:48.168Z,13.90
2018-03-04T15:57:15.718Z,13.70
2018-03-04T15:59:43.251Z,13.70
2018-03-04T16:02:10.808Z,13.80
2018-03-04T16:04:38.418Z,13.80
2018-03-04T16:07:06.704Z,13.50
2018-03-04T16:09:34.252Z,13.50
2018-03-04T16:12:01.794Z,13.60
2018-03-04T16:14:30.431Z,13.70
2018-03-04T16:16:58.391Z,13.60
2018-03-04T16:19:25.909Z,13.50
2018-03-04T16:21:53.470Z,13.20
2018-03-04T16:24:21.016Z,12.90
2018-03-04T16:26:48.547Z,12.70
2018-03-04T16:29:16.094Z,12.50
2018-03-04T16:31:43.624Z,12.40
2018-03-04T16:34:11.184Z,12.10
2018-03-04T16:44:57.488Z,11.80
2018-03-04T16:47:25.986Z,11.90
2018-03-04T16:49:55.075Z,11.80
2018-03-04T16:52:23.055Z,11.60
2018-03-04T16:54:50.698Z,11.50
2018-03-04T16:57:18.250Z,11.50
2018-03-04T16:59:45.777Z,11.30
2018-03-04T17:02:14.667Z,11.30
2018-03-04T17:04:42.778Z,11.20
2018-03-04T17:07:10.305Z,11.20
2018-03-04T17:09:37.858Z,11.10
2018-03-04T17:12:05.391Z,11.20
2018-03-04T17:14:33.693Z,11.10
2018-03-04T17:17:02.914Z,11.00
2018-03-04T17:19:30.441Z,11.00
2018-03-04T17:21:59.954Z,10.50
2018-03-04T17:24:28.341Z,10.40
2018-03-04T17:26:56.861Z,10.40
2018-03-04T17:29:26.344Z,10.50
2018-03-04T17:31:53.874Z,10.60
2018-03-04T17:34:23.375Z,10.50
2018-03-04T17:36:50.953Z,10.30
2018-03-04T17:39:18.474Z,10.00
2018-03-04T17:41:46.033Z,10.10
2018-03-04T17:44:14.327Z,10.00
2018-03-04T17:46:41.885Z,10.00
2018-03-04T17:49:11.151Z,10.10
2018-03-04T17:51:38.683Z,10.00
2018-03-04T17:54:06.239Z,10.10
2018-03-04T17:56:33.765Z,10.00
2018-03-04T17:59:02.117Z,9.90
2018-03-04T18:01:30.597Z,9.80
2018-03-04T18:03:58.122Z,9.80
2018-03-04T18:06:25.666Z,9.60
2018-03-04T18:08:53.185Z,9.50
2018-03-04T18:11:22.681Z,9.40
2018-03-04T18:13:50.960Z,9.30
2018-03-04T18:16:18.482Z,9.30
2018-03-04T18:18:46.072Z,9.20
2018-03-04T18:21:13.570Z,9.20
2018-03-04T18:23:41.112Z,9.20
2018-03-04T18:26:08.638Z,9.20
2018-03-04T18:28:36.153Z,9.20
2018-03-04T18:31:03.700Z,9.20
2018-03-04T18:33:31.223Z,9.10
2018-03-04T18:35:58.762Z,9.00
2018-03-04T18:38:26.283Z,8.90
2018-03-04T18:40:53.815Z,8.90
2018-03-04T18:43:22.132Z,8.80
2018-03-04T18:45:49.662Z,8.70
2018-03-04T18:48:17.207Z,8.60
2018-03-04T18:50:44.763Z,8.60
2018-03-04T18:53:13.225Z,8.60
2018-03-04T18:55:40.778Z,8.60
2018-03-04T18:58:08.287Z,8.70
2018-03-04T19:00:35.833Z,8.60
2018-03-04T19:03:04.114Z,8.50
2018-03-04T19:05:31.639Z,8.50
2018-03-04T19:07:59.262Z,8.40
2018-03-04T19:10:26.778Z,8.30
2018-03-04T19:12:55.096Z,8.20
2018-03-04T19:15:22.616Z,8.20
2018-03-04T19:17:50.901Z,8.10
2018-03-04T19:20:18.469Z,8.00
2018-03-04T19:22:46.045Z,8.10
2018-03-04T19:25:13.592Z,8.10
2018-03-04T19:27:41.119Z,8.20
2018-03-04T19:30:10.456Z,8.40
2018-03-04T19:32:38.913Z,8.30
2018-03-04T19:35:07.723Z,8.30
2018-03-04T19:37:35.271Z,8.30
2018-03-04T19:40:02.804Z,8.40
2018-03-04T19:42:30.322Z,8.40
2018-03-04T19:44:57.878Z,8.40
2018-03-04T19:47:25.391Z,8.30
2018-03-04T19:49:53.695Z,8.20
2018-03-04T19:52:21.206Z,8.20
2018-03-04T19:54:48.721Z,8.30
2018-03-04T19:57:16.271Z,8.30
2018-03-04T19:59:43.796Z,8.30
2018-03-04T20:02:12.119Z,8.10
2018-03-04T20:04:39.639Z,8.10
2018-03-04T20:07:07.158Z,8.10
2018-03-04T20:09:34.706Z,8.20
2018-03-04T20:12:02.246Z,8.10
2018-03-04T20:14:29.832Z,8.00
2018-03-04T20:16:57.342Z,7.80
2018-03-04T20:19:24.863Z,7.80
2018-03-04T20:21:52.422Z,8.00
2018-03-04T20:24:19.930Z,8.10
2018-03-04T20:26:47.692Z,8.20
2018-03-04T20:29:15.218Z,8.50
2018-03-04T20:31:42.739Z,8.60
2018-03-04T20:34:10.283Z,8.70
2018-03-04T20:36:37.803Z,8.80
2018-03-04T20:39:05.348Z,8.80
2018-03-04T20:41:32.863Z,8.80
2018-03-04T20:44:00.390Z,8.70
2018-03-04T20:46:30.117Z,8.70
2018-03-04T20:48:57.677Z,8.70
2018-03-04T20:51:25.228Z,8.70
2018-03-04T20:53:53.715Z,8.70
2018-03-04T20:56:21.251Z,8.60
2018-03-04T20:58:49.554Z,8.60
2018-03-04T21:01:17.110Z,8.60
2018-03-04T21:03:44.652Z,8.60
2018-03-04T21:06:12.180Z,8.50
2018-03-04T21:08:40.470Z,8.40
2018-03-04T21:11:08.114Z,8.40
2018-03-04T21:13:35.651Z,8.40
2018-03-04T21:16:03.350Z,8.40
2018-03-04T21:18:31.662Z,8.40
2018-03-04T21:20:59.210Z,8.40
2018-03-04T21:23:26.799Z,8.30
2018-03-04T21:25:55.338Z,8.40
2018-03-04T21:28:23.655Z,8.30
2018-03-04T21:30:51.182Z,8.30
2018-03-04T21:33:18.717Z,8.30
2018-03-04T21:35:47.049Z,8.30
2018-03-04T21:38:14.567Z,8.30
2018-03-04T21:40:42.115Z,8.00
2018-03-04T21:43:10.403Z,7.90
2018-03-04T21:45:38.687Z,8.00
2018-03-04T21:48:06.261Z,8.00
2018-03-04T21:50:33.881Z,7.90
2018-03-04T21:53:02.196Z,7.50
2018-03-04T21:55:29.722Z,7.50
2018-03-04T21:57:57.255Z,7.50
2018-03-04T22:00:24.806Z,7.60
2018-03-04T22:02:52.324Z,7.70
2018-03-04T22:05:19.885Z,7.80
2018-03-04T22:07:48.350Z,7.90
2018-03-04T22:10:15.867Z,7.90
2018-03-04T22:12:43.421Z,7.60
2018-03-04T22:15:10.948Z,7.30
2018-03-04T22:17:40.458Z,7.40
2018-03-04T22:20:07.973Z,7.60
2018-03-04T22:22:35.496Z,7.80
2018-03-04T22:25:03.055Z,7.90
2018-03-04T22:27:30.584Z,7.90
2018-03-04T22:29:58.109Z,7.80
2018-03-04T22:32:25.669Z,7.70
2018-03-04T22:34:53.950Z,7.10
2018-03-04T22:37:21.539Z,7.10
2018-03-04T22:39:49.118Z,7.20
2018-03-04T22:42:16.649Z,7.10
2018-03-04T22:44:44.196Z,7.00
2018-03-04T22:47:11.713Z,7.20
2018-03-04T22:49:39.254Z,7.20
2018-03-04T22:52:06.768Z,7.10
2018-03-04T22:54:34.456Z,7.20
2018-03-04T22:57:02.010Z,7.20
2018-03-04T22:59:29.519Z,7.10
2018-03-04T23:01:57.063Z,6.90
2018-03-04T23:04:24.585Z,7.00
2018-03-04T23:06:52.100Z,7.00
2018-03-04T23:09:20.413Z,7.00
2018-03-04T23:11:47.934Z,6.90
2018-03-04T23:14:15.478Z,7.10
2018-03-04T23:16:43.001Z,7.10
2018-03-04T23:19:10.522Z,7.00
2018-03-04T23:21:38.841Z,6.70
2018-03-04T23:24:06.355Z,6.70
2018-03-04T23:26:33.910Z,6.50
2018-03-04T23:29:02.203Z,6.70
2018-03-04T23:31:29.728Z,6.70
2018-03-04T23:33:57.277Z,6.70
2018-03-04T23:36:24.798Z,6.40
2018-03-04T23:38:52.341Z,6.50
2018-03-04T23:41:19.867Z,6.60
2018-03-04T23:43:47.417Z,6.60
2018-03-04T23:46:14.970Z,6.60
2018-03-04T23:48:42.494Z,6.70
2018-03-04T23:51:10.046Z,6.80
2018-03-04T23:53:37.592Z,7.00
2018-03-04T23:56:05.117Z,7.00
2018-03-04T23:58:33.637Z,7.00
